Tiempo atmosférico en la estación meteorológica de Coruña Del Conde, Burgos (945 m.)



Fecha
DESCASC
Temp. máxima en grados centígrados (hora)
DESCASC
Temp. mínima en grados centígrados (hora)
DESCASC
Temp. media en grados centígrados
DESCASC
Racha de viento máxima en m/sg (hora)
DESCASC
Velocidad máxima media en intervalos de 10 minutos(hora)
DESCASC
Precipitaciones diarias en mm
DESCASC
Precipitaciones de 00:00 a 06:00 en mm
DESCASC
Precipitaciones de 06:00 a 12:00 en mm
DESCASC
Precipitaciones de 12:00 a 18:00 en mm
DESCASC
Precipitaciones de 18:00 a 24:00 en mm
DESCASC
23-05-2018 20.6 (14:10) 10.4 (05:50) 15.5 10 (15:10) 6.39 (23:59) 26.6 0 0 0.2 26.4
22-05-2018 22.3 (18:00) 9.4 (05:50) 15.8 8.61 (15:00) 4.72 (15:50) 1.2 1.2 0 0 0
21-05-2018 19.6 (14:50) 10.8 (07:10) 15.2 10 (15:10) 7.78 (15:10) 0.6 0 0 0 0.6
20-05-2018 21.3 (16:00) 7 (00:00) 14.1 14.72 (16:40) 9.17 (16:40) 0 0 0 0 0
19-05-2018 21.9 (18:10) 8 (00:00) 14.9 8.33 (18:40) 5.56 (18:40) 0.2 0 0 0 0.2
18-05-2018 20.2 (14:30) 8.9 (00:00) 14.6 10.56 (14:50) 6.39 (14:50) 5 0 0 4.8 0.2
17-05-2018 21.4 (16:40) 9.2 (00:00) 15.3 13.06 (17:30) 8.89 (17:30) 1.8 0 0 0 1.8
16-05-2018 22.1 (16:40) 4.4 (00:00) 13.3 7.78 (14:10) 3.89 (14:10) 0 0 0 0 0
15-05-2018 20.1 (16:20) 0.8 (00:00) 10.5 11.94 (18:30) 8.61 (18:30) 0 0 0 0 0
14-05-2018 15 (18:00) 5.1 (00:00) 10 10.28 (14:00) 6.39 (19:40) 0.2 0 0.2 0 0
13-05-2018 13.1 (17:20) -1.2 (-00:0) 6 10.56 (15:40) 7.22 (15:10) 0 0 0 0 0
12-05-2018 14 (15:30) 3.5 (00:00) 8.8 12.22 (20:00) 7.5 (20:10) 0.8 0 0.6 0.2 0
11-05-2018 22 (16:00) 6.2 (07:00) 14.1 10 (18:40) 6.67 (18:40) 0.8 0 0 0 0.8
10-05-2018 19.4 (18:30) 8.6 (00:00) 14 6.94 (14:30) 3.61 (14:40) 0 0 0 0 0
09-05-2018 20 (16:20) 5.5 (00:00) 12.8 10.56 (16:00) 5.56 (15:30) 0 0 0 0 0
08-05-2018 20.9 (18:10) 8.5 (00:00) 14.7 11.11 (14:40) 6.67 (14:40) 8.8 0 0 8.8 0
07-05-2018 23.2 (15:50) 11 (00:00) 17.1 11.67 (16:30) 5.56 (16:30) 1 0 0 0.8 0.2
06-05-2018 22.6 (17:50) 10.8 (00:00) 16.7 9.17 (09:50) 5.83 (10:00) 0 0 0 0 0
05-05-2018 20.7 (18:00) 2.1 (00:00) 11.4 5.56 (15:30) 3.06 (21:50) 0 0 0 0 0
04-05-2018 15.4 (15:20) 2.4 (00:00) 8.9 15 (16:00) 8.06 (17:40) 0 0 0 0 0
03-05-2018 12.6 (15:50) 4.9 (00:00) 8.8 11.67 (12:40) 8.06 (15:20) 0 0 0 0 0
02-05-2018 13.7 (15:50) 2 (00:00) 7.8 10.56 (14:10) 5.83 (13:50) 0.4 0 0 0 0.4
01-05-2018 11.9 (18:00) -1 (07:20) 5.4 9.72 (17:40) 5.83 (17:40) 0 0 0 0 0
30-04-2018 7.7 (16:20) 0.7 (00:00) 4.2 11.11 (15:20) 5.83 (15:30) 2.4 0 0 2.2 0.2
29-04-2018 9.3 (16:20) 3.6 (00:00) 6.5 16.94 (16:30) 8.33 (15:20) 2.8 1 0.2 0.6 1
28-04-2018 15.8 (16:20) 8.1 (00:00) 12 11.39 (16:40) 7.22 (16:40) 0 0 0 0 0
27-04-2018 19 (16:40) 10.9 (00:00) 14.9 9.17 (19:30) 5.28 (19:30) 0 0 0 0 0
26-04-2018 22.3 (17:20) 6.9 (00:00) 14.6 8.33 (16:50) 4.72 (19:00) 0 0 0 0 0
25-04-2018 25.1 (15:40) 10.3 (00:00) 17.7 8.89 (17:40) 6.11 (17:40) 0 0 0 0 0

Gráficas

Temp. máximas Temp. mínimas Temp. medias Precipitaciones Rachas de viento máximas Velocidades máximas media en intervalos de 10 minutos

Datos horarios

Fecha y hora oficial Temperatura (ºC) Velocidad del viento (km/h) Dirección del viento Racha (km/h) Dirección de racha Precipitación (mm) Presión (hPa) Tendencia (hPa) Humedad (%)
2018-05-24 23:00:00 16.8 18 Este 34 Este 0 -- -- 66
2018-05-24 22:00:00 17.5 17 Este 33 Este 0 -- -- 61
2018-05-24 21:00:00 18.1 15 Nordeste 31 Este 0 -- -- 61
2018-05-24 20:00:00 20.8 16 Este 31 Este 0 -- -- 51
2018-05-24 19:00:00 21 16 Este 35 Este 0 -- -- 51
2018-05-24 18:00:00 21.1 8 Norte 12 Norte 0 -- -- 51
2018-05-24 17:00:00 21.3 3 Norte 10 Noroeste 0 -- -- 47
2018-05-24 16:00:00 20.6 8 Este 27 Este 0.4 -- -- 48
2018-05-24 15:00:00 21.4 10 Sur 16 Sudoeste 0 -- -- 54
2018-05-24 14:00:00 21.3 6 Sudoeste 15 Sudeste 0 -- -- 50
2018-05-24 13:00:00 20.7 7 Sur 18 Este 0 -- -- 55
2018-05-24 12:00:00 19.5 5 Sudeste 23 Sudeste 0 -- -- 63
2018-05-24 11:00:00 17.6 16 Sudeste 25 Sudeste 0 -- -- 71
2018-05-24 10:00:00 16.5 14 Sudeste 23 Este 0 -- -- 75
2018-05-24 09:00:00 14.9 9 Este 25 Este 0 -- -- 82
2018-05-24 08:00:00 12.2 13 Este 22 Este 0 -- -- 92
2018-05-24 07:00:00 11.4 10 Este 19 Sudeste 0 -- -- 94
2018-05-24 06:00:00 11 9 Sudeste 17 Este 0 -- -- 92
2018-05-24 05:00:00 10.7 7 Sudeste 13 Sudeste 0 -- -- 92
2018-05-24 04:00:00 10.7 5 Este 12 Este 0 -- -- 91
2018-05-24 03:00:00 11.1 10 Este 29 Nordeste 0 -- -- 89
2018-05-24 02:00:00 11.8 21 Nordeste 31 Nordeste 0.6 -- -- 85
2018-05-24 01:00:00 11.3 15 Norte 40 Noroeste 4.2 -- -- 93
2018-05-24 00:00:00 12.9 23 Noroeste 35 Oeste 16.8 -- -- 92
2018-05-23 23:00:00 14.3 10 Nordeste 23 Nordeste 1.4 -- -- 87
2018-05-23 22:00:00 14.8 6 Nordeste 22 Este 5.4 -- -- 86
2018-05-23 21:00:00 15.5 11 Sudeste 19 Sur 2.8 -- -- 82
2018-05-23 20:00:00 18.8 8 Sudeste 17 Norte 0 -- -- 61
2018-05-23 19:00:00 19.9 8 Norte 14 Noroeste 0 -- -- 59
2018-05-23 18:00:00 17.3 7 Este 16 Norte 0 -- -- 72
2018-05-23 17:00:00 16.7 4 Sur 13 Sudeste 0.2 -- -- 70
2018-05-23 16:00:00 16.4 9 Sudeste 36 Sur 0 -- -- 74
2018-05-23 15:00:00 20 8 Sur 14 Sur 0 -- -- 53
2018-05-23 14:00:00 20.2 6 Noroeste 14 Noroeste 0 -- -- 51
2018-05-23 13:00:00 19.2 6 Norte 14 Nordeste 0 -- -- 60
2018-05-23 12:00:00 17.8 0 Calma 13 Este 0 -- -- 61
2018-05-23 11:00:00 16.1 9 Este 15 Este 0 -- -- 68
2018-05-23 10:00:00 14.5 7 Este 17 Este 0 -- -- 70
2018-05-23 09:00:00 13.9 9 Sudeste 18 Este 0 -- -- 70
2018-05-23 08:00:00 12.9 10 Sudeste 19 Este 0 -- -- 73
2018-05-23 07:00:00 11.3 11 Este 17 Este 0 -- -- 78
2018-05-23 06:00:00 10.4 5 Sudeste 11 Este 0 -- -- 81
2018-05-23 05:00:00 10.7 8 Este 12 Este 0 -- -- 79
2018-05-23 04:00:00 11.2 8 Este 13 Sudeste 0 -- -- 78
2018-05-23 03:00:00 11.9 6 Este 10 Este 0 -- -- 74
2018-05-23 02:00:00 13 7 Este 23 Este 0 -- -- 70
2018-05-23 01:00:00 14 9 Este 16 Este 0 -- -- 70
2018-05-23 00:00:00 15 10 Este 17 Este 0 -- -- 65
2018-05-22 23:00:00 15.7 10 Este 18 Este 0 -- -- 62
2018-05-22 22:00:00 17.4 10 Este 19 Este 0 -- -- 54
2018-05-22 21:00:00 20.1 6 Norte 19 Noroeste 0 -- -- 40
2018-05-22 20:00:00 21.4 11 Noroeste 20 Noroeste 0 -- -- 37
2018-05-22 19:00:00 22 13 Noroeste 24 Noroeste 0 -- -- 37
2018-05-22 18:00:00 22.3 14 Noroeste 22 Noroeste 0 -- -- 40
2018-05-22 17:00:00 21.8 13 Oeste 27 Noroeste 0 -- -- 44
2018-05-22 16:00:00 20.8 17 Oeste 27 Oeste 0 -- -- 42
2018-05-22 15:00:00 21 16 Oeste 31 Oeste 0 -- -- 50
2018-05-22 14:00:00 19.7 11 Oeste 23 Oeste 0 -- -- 54
2018-05-22 13:00:00 18.2 9 Sudoeste 18 Oeste 0 -- -- 59
2018-05-22 12:00:00 17.3 5 Oeste 19 Noroeste 0 -- -- 63
2018-05-22 11:00:00 16.3 9 Oeste 16 Oeste 0 -- -- 68
2018-05-22 10:00:00 14.9 4 Sur 8 Sudoeste 0 -- -- 73
2018-05-22 09:00:00 13.3 0 Calma 3 Nordeste 0 -- -- 84
2018-05-22 08:00:00 10.7 3 Nordeste 10 Nordeste 0 -- -- 90
2018-05-22 07:00:00 9.4 4 Nordeste 8 Nordeste 0 -- -- 93
2018-05-22 06:00:00 9.4 3 Norte 5 Nordeste 0 -- -- 94
2018-05-22 05:00:00 9.9 5 Nordeste 10 Nordeste 0 -- -- 93
2018-05-22 04:00:00 10.2 2 Nordeste 4 Sur 0 -- -- 91
2018-05-22 03:00:00 10.9 3 Noroeste 10 Nordeste 0 -- -- 90
2018-05-22 02:00:00 11.1 3 Nordeste 13 Sur 0 -- -- 90
2018-05-22 01:00:00 11.4 12 Sur 16 Sur 1.2 -- -- 88
2018-05-22 00:00:00 12.1 11 Noroeste 27 Norte 0.6 -- -- 81
2018-05-21 23:00:00 13.9 15 Nordeste 26 Nordeste 0 -- -- 65
2018-05-21 22:00:00 13.7 13 Nordeste 22 Nordeste 0 -- -- 71
2018-05-21 21:00:00 15.2 8 Este 19 Sudeste 0 -- -- 59
2018-05-21 20:00:00 17 14 Sudeste 23 Este 0 -- -- 52
2018-05-21 19:00:00 15.9 15 Nordeste 31 Norte 0 -- -- 61
2018-05-21 18:00:00 17.2 18 Nordeste 24 Este 0 -- -- 62
2018-05-21 17:00:00 16 10 Nordeste 33 Sudoeste 0 -- -- 62
2018-05-21 16:00:00 16.3 21 Sur 36 Sur 0 -- -- 64
2018-05-21 15:00:00 19.5 23 Sur 35 Sur 0 -- -- 51
2018-05-21 14:00:00 18.3 17 Sudoeste 25 Oeste 0 -- -- 52
2018-05-21 13:00:00 19.2 13 Oeste 24 Oeste 0 -- -- 56
2018-05-21 12:00:00 18 6 Sudoeste 13 Oeste 0 -- -- 58
2018-05-21 11:00:00 16.7 5 Noroeste 10 Noroeste 0 -- -- 61
2018-05-21 10:00:00 15.5 2 Sur 12 Sur 0 -- -- 65
2018-05-21 09:00:00 13.3 7 Sudeste 20 Sudeste 0 -- -- 76
2018-05-21 08:00:00 11.9 5 Este 10 Este 0 -- -- 80
2018-05-21 07:00:00 10.9 8 Sudeste 13 Sudeste 0 -- -- 83
2018-05-21 06:00:00 11.4 9 Sudeste 13 Este 0 -- -- 82
2018-05-21 05:00:00 11.8 6 Sudeste 17 Sudeste 0 -- -- 79
2018-05-21 04:00:00 12.4 9 Sudeste 15 Sudeste 0 -- -- 75
2018-05-21 03:00:00 12.6 5 Este 18 Este 0 -- -- 75
2018-05-21 02:00:00 12.9 11 Este 21 Este 0 -- -- 73
2018-05-21 01:00:00 13.4 13 Este 24 Sudeste 0 -- -- 70
2018-05-21 00:00:00 13 11 Este 17 Este 0 -- -- 69
2018-05-20 23:00:00 14 5 Norte 11 Nordeste 0 -- -- 69
2018-05-20 22:00:00 15.1 6 Este 9 Este 0 -- -- 65
2018-05-20 21:00:00 16.3 6 Sudeste 15 Sudeste 0 -- -- 58
2018-05-20 20:00:00 17.3 11 Sudeste 21 Sudeste 0 -- -- 52
2018-05-20 19:00:00 17.9 14 Sudeste 30 Sudeste 0 -- -- 48
2018-05-20 18:00:00 18.4 19 Sur 38 Sudeste 0 -- -- 49
2018-05-20 17:00:00 19.3 26 Sudeste 53 Sudeste 0 -- -- 46
2018-05-20 16:00:00 21.3 9 Sur 26 Sudeste 0 -- -- 37
2018-05-20 15:00:00 20.7 14 Sudeste 25 Sudeste 0 -- -- 38
2018-05-20 14:00:00 19.7 10 Este 25 Este 0 -- -- 40
2018-05-20 13:00:00 18.3 6 Sudeste 23 Sudeste 0 -- -- 42
2018-05-20 12:00:00 17.4 9 Sudeste 24 Este 0 -- -- 41
2018-05-20 11:00:00 16.2 11 Este 22 Sudeste 0 -- -- 49
2018-05-20 10:00:00 15 12 Este 20 Este 0 -- -- 55
2018-05-20 09:00:00 12.7 10 Este 17 Sudeste 0 -- -- 66
2018-05-20 08:00:00 8.9 3 Nordeste 8 Nordeste 0 -- -- 87
2018-05-20 07:00:00 7.1 4 Norte 11 Nordeste 0 -- -- 89
2018-05-20 06:00:00 7.8 7 Este 12 Este 0 -- -- 88
2018-05-20 05:00:00 8.3 8 Este 11 Este 0 -- -- 88
2018-05-20 04:00:00 8.7 7 Nordeste 10 Nordeste 0 -- -- 89
2018-05-20 03:00:00 9.2 6 Nordeste 9 Este 0 -- -- 87
2018-05-20 02:00:00 10.2 5 Este 14 Este 0 -- -- 84
2018-05-20 01:00:00 10.5 7 Nordeste 16 Sudeste 0 -- -- 81
2018-05-20 00:00:00 12.1 10 Este 23 Este 0 -- -- 78
2018-05-19 23:00:00 13 9 Sudeste 25 Sudeste 0 -- -- 74
2018-05-19 22:00:00 14.6 8 Sudeste 23 Nordeste 0.2 -- -- 74
2018-05-19 21:00:00 16.9 16 Nordeste 24 Nordeste 0 -- -- 61
2018-05-19 20:00:00 18.7 10 Este 22 Este 0 -- -- 45
2018-05-19 19:00:00 19.3 17 Este 30 Este 0 -- -- 44
2018-05-19 18:00:00 21.6 3 Norte 12 Norte 0 -- -- 34
2018-05-19 17:00:00 21 5 Noroeste 15 Noroeste 0 -- -- 42
2018-05-19 16:00:00 21.1 6 Oeste 17 Oeste 0 -- -- 42
2018-05-19 15:00:00 20 6 Noroeste 14 Oeste 0 -- -- 47
2018-05-19 14:00:00 18.8 9 Oeste 16 Oeste 0 -- -- 49
2018-05-19 13:00:00 17.7 4 Nordeste 12 Oeste 0 -- -- 54
2018-05-19 12:00:00 17.6 4 Noroeste 12 Norte 0 -- -- 59
2018-05-19 11:00:00 16.7 6 Sur 15 Sudeste 0 -- -- 62
2018-05-19 10:00:00 15 6 Nordeste 14 Este 0 -- -- 69
2018-05-19 09:00:00 12.5 9 Este 16 Este 0 -- -- 78
2018-05-19 08:00:00 8.7 4 Nordeste 12 Este 0 -- -- 90
2018-05-19 07:00:00 8.1 8 Este 12 Este 0 -- -- 91
2018-05-19 06:00:00 8 5 Este 12 Este 0 -- -- 90
2018-05-19 05:00:00 8.7 10 Este 13 Este 0 -- -- 90
2018-05-19 04:00:00 9.4 4 Este 9 Este 0 -- -- 87
2018-05-19 03:00:00 9.7 3 Este 9 Nordeste 0 -- -- 89
2018-05-19 02:00:00 9.7 8 Nordeste 11 Nordeste 0 -- -- 90
2018-05-19 01:00:00 10.2 6 Nordeste 12 Este 0 -- -- 87
2018-05-19 00:00:00 11.2 7 Este 15 Nordeste 0 -- -- 83
2018-05-18 23:00:00 12.1 10 Este 15 Este 0 -- -- 82
2018-05-18 22:00:00 13.8 10 Este 18 Este 0 -- -- 70
2018-05-18 21:00:00 15.3 7 Nordeste 13 Nordeste 0 -- -- 73
2018-05-18 20:00:00 15.8 10 Norte 15 Norte 0 -- -- 68
2018-05-18 19:00:00 15.3 6 Norte 10 Norte 0.2 -- -- 73
2018-05-18 18:00:00 14 0 Calma 9 Noroeste 0 -- -- 78
2018-05-18 17:00:00 13.1 3 Sudeste 9 Sudeste 1 -- -- 83
2018-05-18 16:00:00 12.3 5 Sur 30 Nordeste 3 -- -- 82
2018-05-18 15:00:00 14.3 20 Nordeste 38 Este 0.8 -- -- 72
2018-05-18 14:00:00 19.2 6 Sudoeste 19 Sudeste 0 -- -- 48
2018-05-18 13:00:00 18.5 11 Sur 23 Sur 0 -- -- 52
2018-05-18 12:00:00 17 9 Sudeste 27 Sudeste 0 -- -- 59
2018-05-18 11:00:00 16.1 15 Sudeste 22 Sudeste 0 -- -- 58
2018-05-18 10:00:00 14.3 13 Sudeste 21 Sudeste 0 -- -- 68
2018-05-18 09:00:00 12.7 12 Sudeste 20 Sudeste 0 -- -- 73
2018-05-18 08:00:00 10.6 4 Sudeste 13 Este 0 -- -- 81
2018-05-18 07:00:00 10.7 11 Este 23 Este 0 -- -- 78
2018-05-18 06:00:00 9.9 13 Este 22 Sudeste 0 -- -- 81
2018-05-18 05:00:00 9.2 7 Este 13 Nordeste 0 -- -- 86
2018-05-18 04:00:00 9.3 6 Nordeste 10 Este 0 -- -- 91
2018-05-18 03:00:00 9.2 0 Calma 6 Este 0 -- -- 90
2018-05-18 02:00:00 9.2 4 Sudeste 8 Sudoeste 0 -- -- 90
2018-05-18 01:00:00 9.7 0 Calma 10 Noroeste 0 -- -- 87
2018-05-18 00:00:00 10.4 10 Norte 19 Noroeste 0 -- -- 86
2018-05-17 23:00:00 11.8 7 Oeste 10 Sudoeste 0.2 -- -- 85
2018-05-17 22:00:00 13.2 3 Norte 25 Noroeste 0 -- -- 71
2018-05-17 21:00:00 13.7 15 Oeste 33 Oeste 0 -- -- 69
2018-05-17 20:00:00 15 10 Este 18 Nordeste 0 -- -- 59
2018-05-17 19:00:00 14.3 13 Norte 35 Norte 1.6 -- -- 68
2018-05-17 18:00:00 15.9 26 Nordeste 47 Norte 0 -- -- 52
2018-05-17 17:00:00 21.1 9 Noroeste 18 Oeste 0 -- -- 38
2018-05-17 16:00:00 20.5 5 Oeste 14 Oeste 0 -- -- 40
2018-05-17 15:00:00 19.2 6 Sur 13 Sur 0 -- -- 50
2018-05-17 14:00:00 17.6 6 Sur 13 Sur 0 -- -- 52
2018-05-17 13:00:00 16 8 Sur 14 Sur 0 -- -- 57
2018-05-17 12:00:00 15.4 10 Sur 17 Sur 0 -- -- 62
2018-05-17 11:00:00 16.3 8 Sudeste 15 Sudeste 0 -- -- 55
2018-05-17 10:00:00 13.3 9 Este 17 Este 0 -- -- 64
2018-05-17 09:00:00 12.1 10 Este 18 Este 0 -- -- 70
2018-05-17 08:00:00 11.1 9 Este 20 Este 0 -- -- 70
2018-05-17 07:00:00 10.3 12 Este 23 Este 0 -- -- 70
2018-05-17 06:00:00 10 10 Este 17 Este 0 -- -- 67
2018-05-17 05:00:00 9.2 5 Este 11 Este 0 -- -- 72
2018-05-17 04:00:00 9.7 7 Este 12 Este 0 -- -- 73
2018-05-17 03:00:00 10.6 9 Este 12 Este 0 -- -- 71
2018-05-17 02:00:00 12.1 6 Sudeste 13 Este 0 -- -- 64
2018-05-17 01:00:00 12.8 8 Este 15 Nordeste 0 -- -- 62
2018-05-17 00:00:00 13.5 9 Nordeste 15 Nordeste 0 -- -- 62
2018-05-16 23:00:00 14.2 9 Nordeste 14 Nordeste 0 -- -- 60
2018-05-16 22:00:00 16.4 8 Nordeste 18 Este 0 -- -- 51
2018-05-16 21:00:00 19.8 7 Este 16 Este 0 -- -- 37
2018-05-16 20:00:00 21.4 10 Sudeste 16 Sudeste 0 -- -- 33
2018-05-16 19:00:00 20.7 6 Sur 25 Sudeste 0 -- -- 35
2018-05-16 18:00:00 22 10 Sur 17 Sur 0 -- -- 32
2018-05-16 17:00:00 21.3 11 Sudeste 23 Sudeste 0 -- -- 34
2018-05-16 16:00:00 21.2 10 Nordeste 21 Sur 0 -- -- 34
2018-05-16 15:00:00 20.5 12 Sudeste 28 Sudeste 0 -- -- 35
2018-05-16 14:00:00 20 10 Sudeste 25 Sudeste 0 -- -- 38
2018-05-16 13:00:00 18.2 6 Noroeste 15 Sudeste 0 -- -- 47
2018-05-16 12:00:00 15.8 6 Sur 15 Sur 0 -- -- 55
2018-05-16 11:00:00 13.8 6 Sudoeste 13 Sudoeste 0 -- -- 59
2018-05-16 10:00:00 12.1 4 Sur 12 Sudeste 0 -- -- 64
2018-05-16 09:00:00 9.8 5 Este 9 Sudeste 0 -- -- 73
2018-05-16 08:00:00 5.7 3 Noroeste 5 Norte 0 -- -- 85
2018-05-16 07:00:00 4.4 4 Nordeste 7 Norte 0 -- -- 86
2018-05-16 06:00:00 4.8 4 Norte 8 Norte 0 -- -- 85
2018-05-16 05:00:00 5.2 5 Nordeste 9 Nordeste 0 -- -- 85
2018-05-16 04:00:00 6 2 Norte 8 Este 0 -- -- 81
2018-05-16 03:00:00 7 3 Nordeste 5 Este 0 -- -- 77
2018-05-16 02:00:00 7.4 2 Sudoeste 5 Sudoeste 0 -- -- 76
2018-05-16 01:00:00 7.9 4 Sudeste 7 Sudeste 0 -- -- 74
2018-05-16 00:00:00 9.4 4 Sur 18 Nordeste 0 -- -- 69
2018-05-15 23:00:00 10.3 9 Nordeste 22 Nordeste 0 -- -- 66
2018-05-15 22:00:00 11.1 13 Norte 30 Norte 0 -- -- 64
2018-05-15 21:00:00 13.3 20 Norte 35 Norte 0 -- -- 57
2018-05-15 20:00:00 15.9 23 Norte 38 Norte 0 -- -- 50
2018-05-15 19:00:00 17.1 30 Norte 43 Norte 0 -- -- 46
2018-05-15 18:00:00 19 27 Norte 40 Norte 0 -- -- 43
2018-05-15 17:00:00 19.6 15 Norte 28 Norte 0 -- -- 42
2018-05-15 16:00:00 18.9 9 Oeste 20 Oeste 0 -- -- 39
2018-05-15 15:00:00 18.6 8 Oeste 21 Sudoeste 0 -- -- 41
2018-05-15 14:00:00 17.1 8 Sur 23 Sudoeste 0 -- -- 41
2018-05-15 13:00:00 14.9 8 Oeste 22 Oeste 0 -- -- 44
2018-05-15 12:00:00 13.3 10 Sudoeste 22 Oeste 0 -- -- 46
2018-05-15 11:00:00 10.8 11 Oeste 18 Sudoeste 0 -- -- 49
2018-05-15 10:00:00 7.5 9 Oeste 17 Oeste 0 -- -- 56
2018-05-15 09:00:00 4.6 9 Sudoeste 14 Sudoeste 0 -- -- 71
2018-05-15 08:00:00 -- 2 Sur 9 Noroeste 0 -- -- --
2018-05-15 07:00:00 1.4 3 Sur 13 Sudoeste 0 -- -- 79
2018-05-15 06:00:00 0.8 6 Sudeste 12 Sudeste 0 -- -- 80
2018-05-15 05:00:00 1.3 7 Sudeste 9 Sudeste 0 -- -- 75
2018-05-15 04:00:00 3 3 Noroeste 13 Sudoeste 0 -- -- 68
2018-05-15 03:00:00 4.1 4 Sudoeste 8 Sudoeste 0 -- -- 60
2018-05-15 02:00:00 5.5 2 Oeste 8 Oeste 0 -- -- 50
2018-05-15 01:00:00 6.5 4 Este 27 Norte 0 -- -- 45
2018-05-15 00:00:00 7.3 16 Norte 32 Norte 0 -- -- 47
2018-05-14 23:00:00 7.4 12 Norte 23 Nordeste 0 -- -- 59
2018-05-14 22:00:00 8.4 17 Norte 31 Norte 0 -- -- 62
2018-05-14 21:00:00 10.7 12 Norte 28 Noroeste 0 -- -- 55
2018-05-14 20:00:00 13.3 19 Noroeste 36 Noroeste 0 -- -- 41
2018-05-14 19:00:00 14.3 21 Noroeste 33 Noroeste 0 -- -- 38
2018-05-14 18:00:00 15 14 Norte 32 Norte 0 -- -- 37
2018-05-14 17:00:00 14.8 18 Noroeste 32 Norte 0 -- -- 40
2018-05-14 16:00:00 14.6 18 Norte 35 Norte 0 -- -- 39
2018-05-14 15:00:00 13.4 19 Norte 35 Noroeste 0 -- -- 45
2018-05-14 14:00:00 12.3 23 Norte 37 Norte 0 -- -- 48
2018-05-14 13:00:00 12.2 17 Noroeste 30 Noroeste 0 -- -- 58
2018-05-14 12:00:00 10.4 17 Noroeste 28 Noroeste 0 -- -- 70
2018-05-14 11:00:00 8.2 9 Noroeste 18 Oeste 0 -- -- 80
2018-05-14 10:00:00 7 8 Noroeste 14 Noroeste 0 -- -- 82
2018-05-14 09:00:00 6.2 9 Noroeste 17 Oeste 0 -- -- 82
2018-05-14 08:00:00 5.6 9 Oeste 14 Oeste 0 -- -- 86
2018-05-14 07:00:00 5.1 8 Oeste 15 Oeste 0.2 -- -- 88
2018-05-14 06:00:00 5.5 2 Sudoeste 9 Oeste 0 -- -- 86
2018-05-14 05:00:00 5.6 6 Oeste 11 Noroeste 0 -- -- 83
2018-05-14 04:00:00 5.7 6 Oeste 12 Oeste 0 -- -- 79
2018-05-14 03:00:00 5.9 6 Oeste 12 Sudoeste 0 -- -- 76
2018-05-14 02:00:00 5.8 5 Oeste 10 Oeste 0 -- -- 74
2018-05-14 01:00:00 6.4 5 Noroeste 9 Noroeste 0 -- -- 71
2018-05-11 20:00:00 -- -- -- -- -- -- -- -- --
2018-05-11 19:00:00 17.4 9 Sudeste 36 Sudoeste 0.6 -- -- 73
2018-05-11 18:00:00 20.6 13 Noroeste 26 Oeste 0 -- -- 48
2018-05-11 17:00:00 20.8 17 Noroeste 29 Oeste 0 -- -- 49
2018-05-11 16:00:00 22 17 Oeste 34 Sudoeste 0 -- -- 42
2018-05-11 15:00:00 21.2 17 Oeste 31 Oeste 0 -- -- 41
2018-05-11 14:00:00 21.2 14 Oeste 27 Oeste 0 -- -- 49
2018-05-11 13:00:00 20.1 15 Oeste 30 Sudoeste 0 -- -- 45
2018-05-11 12:00:00 18.8 6 Sudoeste 15 Sudoeste 0 -- -- 49
2018-05-11 11:00:00 17 4 Sur 12 Sur 0 -- -- 53
2018-05-11 10:00:00 14.1 6 Sudeste 15 Sudeste 0 -- -- 59
2018-05-11 09:00:00 10.7 9 Sudeste 18 Sudeste 0 -- -- 70
2018-05-11 08:00:00 7.9 5 Sudeste 11 Sudeste 0 -- -- 80
2018-05-11 07:00:00 6.2 5 Sudeste 11 Sudeste 0 -- -- 83
2018-05-11 06:00:00 6.6 4 Este 12 Sudeste 0 -- -- 81
2018-05-11 05:00:00 7.3 4 Este 17 Este 0 -- -- 79
2018-05-11 04:00:00 7.9 10 Este 17 Sudeste 0 -- -- 77
2018-05-11 03:00:00 7.8 7 Este 13 Este 0 -- -- 78
2018-05-11 02:00:00 8.5 9 Sudeste 14 Sudeste 0 -- -- 76
2018-05-11 01:00:00 9.8 7 Sudeste 15 Sudeste 0 -- -- 69
2018-05-11 00:00:00 11.3 4 Este 18 Sudeste 0 -- -- 66
2018-05-10 23:00:00 12.1 12 Este 17 Este 0 -- -- 62
2018-05-10 22:00:00 13.6 4 Nordeste 13 Noroeste 0 -- -- 54
2018-05-10 21:00:00 16.3 11 Noroeste 16 Noroeste 0 -- -- 46
2018-05-10 20:00:00 18.7 9 Noroeste 15 Noroeste 0 -- -- 39
2018-05-10 19:00:00 19.1 5 Norte 15 Oeste 0 -- -- 37
2018-05-10 18:00:00 19 5 Noroeste 17 Noroeste 0 -- -- 35
2018-05-10 17:00:00 18.9 8 Oeste 16 Oeste 0 -- -- 39
2018-05-10 16:00:00 18.1 8 Noroeste 19 Norte 0 -- -- 40
2018-05-10 15:00:00 17 7 Norte 25 Noroeste 0 -- -- 43
2018-05-10 14:00:00 16.6 8 Norte 22 Nordeste 0 -- -- 45
2018-05-10 13:00:00 15.9 8 Norte 22 Noroeste 0 -- -- 49
2018-05-10 12:00:00 14.5 10 Norte 22 Norte 0 -- -- 49
2018-05-10 11:00:00 13.6 8 Nordeste 17 Norte 0 -- -- 52
2018-05-10 10:00:00 12.8 6 Norte 17 Nordeste 0 -- -- 63
2018-05-10 09:00:00 10 8 Nordeste 15 Nordeste 0 -- -- 71
2018-05-10 08:00:00 8.6 11 Nordeste 21 Norte 0 -- -- 72
2018-05-10 07:00:00 9.3 10 Norte 15 Norte 0 -- -- 76
2018-05-10 06:00:00 9.8 8 Norte 19 Norte 0 -- -- 77
2018-05-10 05:00:00 10.3 11 Norte 19 Norte 0 -- -- 74
2018-05-10 04:00:00 11.6 4 Nordeste 9 Nordeste 0 -- -- 75
2018-05-10 03:00:00 12.3 3 Sudoeste 9 Nordeste 0 -- -- 76
2018-05-10 02:00:00 12.4 7 Nordeste 10 Nordeste 0 -- -- 75
2018-05-10 01:00:00 12.7 3 Sudoeste 14 Nordeste 0 -- -- 73
2018-05-10 00:00:00 13.3 10 Este 18 Nordeste 0 -- -- 68
2018-05-09 23:00:00 13.5 11 Nordeste 17 Nordeste 0 -- -- 68
2018-05-09 22:00:00 14.1 4 Norte 19 Norte 0 -- -- 68
2018-05-09 21:00:00 15.4 10 Norte 23 Norte 0 -- -- 63
2018-05-09 20:00:00 16.9 16 Noroeste 26 Noroeste 0 -- -- 52
2018-05-09 19:00:00 18.3 17 Noroeste 28 Noroeste 0 -- -- 46
2018-05-09 18:00:00 18.7 18 Noroeste 31 Noroeste 0 -- -- 51
2018-05-09 17:00:00 19.5 16 Noroeste 32 Noroeste 0 -- -- 49
2018-05-09 16:00:00 19.6 20 Oeste 38 Oeste 0 -- -- 47
2018-05-09 15:00:00 19.2 18 Oeste 30 Oeste 0 -- -- 49
2018-05-09 14:00:00 18.4 18 Oeste 33 Oeste 0 -- -- 47
2018-05-09 13:00:00 16.9 8 Oeste 17 Oeste 0 -- -- 48
2018-05-09 12:00:00 15.5 4 Noroeste 10 Noroeste 0 -- -- 65
2018-05-09 11:00:00 14 3 Nordeste 8 Sudoeste 0 -- -- 73
2018-05-09 10:00:00 12.3 4 Sur 12 Sur 0 -- -- 76
2018-05-09 09:00:00 10 5 Sudeste 10 Sudeste 0 -- -- 84
2018-05-09 08:00:00 6.9 0 Calma 8 Sudeste 0 -- -- 91
2018-05-09 07:00:00 5.5 3 Este 7 Sudeste 0 -- -- 92
2018-05-09 06:00:00 6.7 4 Nordeste 8 Nordeste 0 -- -- 89
2018-05-09 05:00:00 6.7 4 Norte 8 Nordeste 0 -- -- 90
2018-05-09 04:00:00 7.4 3 Norte 8 Nordeste 0 -- -- 90
2018-05-09 03:00:00 8.8 3 Este 6 Este 0 -- -- 84
2018-05-09 02:00:00 9.4 4 Norte 8 Nordeste 0 -- -- 85
2018-05-09 01:00:00 10.6 3 Norte 10 Este 0 -- -- 80
2018-05-09 00:00:00 10.9 6 Sudeste 10 Sudeste 0 -- -- 79
2018-05-08 23:00:00 12 0 Calma 15 Norte 0 -- -- 75
2018-05-08 22:00:00 13.1 14 Norte 24 Norte 0 -- -- 71
2018-05-08 21:00:00 15 20 Norte 35 Norte 0 -- -- 66
2018-05-08 20:00:00 18.8 20 Norte 28 Noroeste 0 -- -- 52
2018-05-08 19:00:00 20.6 16 Norte 28 Norte 0 -- -- 49
2018-05-08 18:00:00 20.8 13 Norte 22 Norte 0 -- -- 50
2018-05-08 17:00:00 19.7 10 Nordeste 19 Nordeste 0 -- -- 54
2018-05-08 16:00:00 17.1 6 Nordeste 21 Este 0.2 -- -- 79
2018-05-08 15:00:00 12.2 8 Noroeste 40 Nordeste 8.6 -- -- 81
2018-05-08 14:00:00 19.6 14 Oeste 24 Oeste 0 -- -- 62
2018-05-08 13:00:00 18.8 12 Oeste 21 Oeste 0 -- -- 72
2018-05-08 12:00:00 16.7 8 Sudoeste 23 Oeste 0 -- -- 79
2018-05-08 11:00:00 13.8 4 Oeste 11 Sudoeste 0 -- -- 91
2018-05-08 10:00:00 11.5 7 Oeste 12 Noroeste 0 -- -- 95
2018-05-08 09:00:00 10.8 5 Oeste 10 Oeste 0 -- -- 94
2018-05-08 08:00:00 9.8 0 Calma 4 Este 0 -- -- 93
2018-05-08 07:00:00 8.7 3 Sudeste 5 Sur 0 -- -- 91
2018-05-08 06:00:00 8.9 3 Norte 5 Este 0 -- -- 92
2018-05-08 05:00:00 9.8 4 Nordeste 6 Este 0 -- -- 91
2018-05-08 04:00:00 10.4 4 Nordeste 5 Nordeste 0 -- -- 90
2018-05-08 03:00:00 11 5 Nordeste 7 Norte 0 -- -- 89
2018-05-08 02:00:00 11.3 3 Norte 9 Norte 0 -- -- 87
2018-05-08 01:00:00 12.6 5 Sur 9 Norte 0 -- -- 82
2018-05-08 00:00:00 13.2 6 Nordeste 16 Este 0 -- -- 79
2018-05-07 23:00:00 14.4 4 Sudeste 12 Nordeste 0 -- -- 75
2018-05-07 22:00:00 14.9 6 Nordeste 12 Nordeste 0 -- -- 75
2018-05-07 21:00:00 16 7 Este 13 Este 0.2 -- -- 72
2018-05-07 20:00:00 16.9 6 Norte 9 Norte 0 -- -- 70
2018-05-07 19:00:00 16.1 3 Norte 23 Nordeste 0 -- -- 68
2018-05-07 18:00:00 15.8 9 Sudoeste 25 Sudeste 0 -- -- 62
2018-05-07 17:00:00 15.4 18 Sudeste 42 Norte 0.8 -- -- 70
2018-05-07 16:00:00 22.6 9 Sur 19 Sudoeste 0 -- -- 40
2018-05-07 15:00:00 22 5 Norte 14 Nordeste 0 -- -- 44
2018-05-07 14:00:00 21.1 8 Noroeste 20 Noroeste 0 -- -- 42
2018-05-07 13:00:00 19.9 4 Sur 15 Sudoeste 0 -- -- 46
2018-05-07 12:00:00 19.3 10 Sur 15 Sur 0 -- -- 48
2018-05-07 11:00:00 18.5 9 Sudeste 13 Sudeste 0 -- -- 49
2018-05-07 10:00:00 16.5 2 Nordeste 8 Sudeste 0 -- -- 62
2018-05-07 09:00:00 13 0 Calma 7 Sur 0 -- -- 73
2018-05-07 08:00:00 11.6 3 Nordeste 4 Nordeste 0 -- -- 74
2018-05-07 07:00:00 11.1 3 Este 8 Este 0 -- -- 75
2018-05-07 06:00:00 11.1 0 Calma 11 Este 0 -- -- 74
2018-05-07 05:00:00 11.7 7 Este 14 Este 0 -- -- 72
2018-05-07 04:00:00 11.3 8 Este 13 Este 0 -- -- 71
2018-05-07 03:00:00 11.3 7 Nordeste 12 Este 0 -- -- 69
2018-05-07 02:00:00 12.7 5 Sudeste 15 Este 0 -- -- 63
2018-05-07 01:00:00 13.6 9 Este 18 Este 0 -- -- 61
2018-05-07 00:00:00 15.1 11 Este 18 Este 0 -- -- 57
2018-05-06 23:00:00 16.5 9 Este 15 Este 0 -- -- 54
2018-05-06 22:00:00 17.1 5 Sudeste 12 Este 0 -- -- 52
2018-05-06 21:00:00 18.4 10 Este 24 Este 0 -- -- 49
2018-05-06 20:00:00 19.1 10 Este 27 Nordeste 0 -- -- 44
2018-05-06 19:00:00 21.7 6 Sudoeste 21 Sur 0 -- -- 34
2018-05-06 18:00:00 22.5 11 Sur 28 Sudeste 0 -- -- 33
2018-05-06 17:00:00 22.3 15 Sur 29 Sudeste 0 -- -- 35
2018-05-06 16:00:00 21.8 15 Sudeste 27 Sudeste 0 -- -- 37
2018-05-06 15:00:00 21.2 14 Sudeste 27 Sudeste 0 -- -- 41
2018-05-06 14:00:00 20.1 14 Este 31 Sudeste 0 -- -- 46
2018-05-06 13:00:00 19.5 13 Sudeste 30 Sudeste 0 -- -- 46
2018-05-06 12:00:00 18.5 14 Sudeste 27 Este 0 -- -- 44
2018-05-06 11:00:00 16.8 17 Este 31 Sudeste 0 -- -- 59
2018-05-06 10:00:00 15.1 21 Este 33 Sudeste 0 -- -- 63
2018-05-06 09:00:00 13.6 18 Este 30 Sudeste 0 -- -- 71
2018-05-06 08:00:00 11.4 16 Este 27 Este 0 -- -- 78
2018-05-06 07:00:00 10.9 16 Este 28 Este 0 -- -- 79
2018-05-06 06:00:00 11 15 Este 24 Este 0 -- -- 78
2018-05-06 05:00:00 11.5 12 Este 22 Este 0 -- -- 75
2018-05-06 04:00:00 11.9 17 Este 29 Este 0 -- -- 72
2018-05-06 03:00:00 12.4 18 Este 28 Este 0 -- -- 69
2018-05-06 02:00:00 12.6 14 Este 22 Este 0 -- -- 68
2018-05-06 01:00:00 11.6 4 Este 9 Sudeste 0 -- -- 72
2018-05-06 00:00:00 12.5 7 Este 13 Este 0 -- -- 67
2018-05-05 23:00:00 14.6 6 Sudeste 14 Nordeste 0 -- -- 61
2018-05-05 22:00:00 15.8 10 Norte 16 Nordeste 0 -- -- 58
2018-05-05 21:00:00 18.9 9 Sudeste 18 Sudeste 0 -- -- 46
2018-05-05 20:00:00 19.7 6 Sudeste 12 Sudeste 0 -- -- 45
2018-05-05 19:00:00 20.3 5 Oeste 14 Sudoeste 0 -- -- 42
2018-05-05 18:00:00 20.7 5 Sur 11 Sur 0 -- -- 41
2018-05-05 17:00:00 20 3 Norte 14 Oeste 0 -- -- 44
2018-05-05 16:00:00 19.5 10 Noroeste 20 Oeste 0 -- -- 47
2018-05-05 15:00:00 18.7 8 Noroeste 16 Noroeste 0 -- -- 48
2018-05-05 14:00:00 17.2 6 Sudoeste 17 Sur 0 -- -- 50
2018-05-05 13:00:00 15.5 8 Oeste 18 Oeste 0 -- -- 56
2018-05-05 12:00:00 13.8 8 Oeste 15 Oeste 0 -- -- 58
2018-05-05 11:00:00 11.9 5 Noroeste 9 Sudoeste 0 -- -- 64
2018-05-05 10:00:00 10.2 3 Norte 8 Norte 0 -- -- 71
2018-05-05 09:00:00 7.4 3 Norte 6 Nordeste 0 -- -- 80
2018-05-05 08:00:00 3.5 4 Norte 6 Nordeste 0 -- -- 91
2018-05-05 07:00:00 2.5 3 Nordeste 5 Este 0 -- -- 91
2018-05-05 06:00:00 2.9 4 Norte 6 Nordeste 0 -- -- 89
2018-05-05 05:00:00 4.2 4 Nordeste 6 Nordeste 0 -- -- 88
2018-05-05 04:00:00 4.1 3 Noroeste 5 Noroeste 0 -- -- 87
2018-05-05 03:00:00 4.8 3 Nordeste 5 Este 0 -- -- 84
2018-05-05 02:00:00 5.5 3 Nordeste 7 Sudeste 0 -- -- 80
2018-05-05 01:00:00 6.2 6 Sudeste 9 Sudeste 0 -- -- 79
2018-05-05 00:00:00 6.6 6 Norte 15 Nordeste 0 -- -- 78
2018-05-04 23:00:00 7.2 12 Nordeste 24 Nordeste 0 -- -- 76
2018-05-04 22:00:00 7.8 15 Norte 26 Nordeste 0 -- -- 75
2018-05-04 21:00:00 9.8 13 Norte 32 Nordeste 0 -- -- 67
2018-05-04 20:00:00 12.6 19 Nordeste 36 Nordeste 0 -- -- 55
2018-05-04 19:00:00 13.2 20 Norte 39 Norte 0 -- -- 57
2018-05-04 18:00:00 13.4 27 Norte 41 Norte 0 -- -- 56
2018-05-04 17:00:00 14.3 26 Norte 40 Nordeste 0 -- -- 52
2018-05-04 16:00:00 14.5 28 Norte 54 Nordeste 0 -- -- 50
2018-05-04 15:00:00 14.7 11 Norte 19 Oeste 0 -- -- 45
2018-05-04 14:00:00 14.2 4 Nordeste 20 Norte 0 -- -- 47
2018-05-04 13:00:00 12.6 15 Norte 28 Norte 0 -- -- 50
2018-05-04 12:00:00 11.8 23 Nordeste 40 Nordeste 0 -- -- 51
2018-05-04 11:00:00 10.1 11 Norte 22 Noroeste 0 -- -- 58
2018-05-04 10:00:00 7.8 10 Norte 19 Norte 0 -- -- 57
2018-05-04 09:00:00 5.6 7 Noroeste 12 Noroeste 0 -- -- 62
2018-05-04 08:00:00 3.7 3 Nordeste 12 Nordeste 0 -- -- 70
2018-05-04 07:00:00 2.5 9 Norte 15 Norte 0 -- -- 76
2018-05-04 06:00:00 3 8 Norte 19 Norte 0 -- -- 72
2018-05-04 05:00:00 3.2 14 Norte 20 Norte 0 -- -- 73
2018-05-04 04:00:00 3.2 8 Norte 19 Nordeste 0 -- -- 75
2018-05-04 03:00:00 3.9 12 Norte 26 Norte 0 -- -- 74
2018-05-04 02:00:00 4.1 12 Nordeste 27 Norte 0 -- -- 70
2018-05-04 01:00:00 4.6 19 Norte 32 Norte 0 -- -- 66
2018-05-04 00:00:00 4.9 20 Nordeste 33 Norte 0 -- -- 65
2018-05-03 23:00:00 5 15 Nordeste 41 Norte 0 -- -- 62
2018-05-03 22:00:00 5.5 25 Norte 41 Norte 0 -- -- 61
2018-05-03 21:00:00 6.8 23 Norte 40 Nordeste 0 -- -- 60
2018-05-03 20:00:00 8.2 22 Norte 41 Norte 0 -- -- 55
2018-05-03 19:00:00 9.5 27 Norte 42 Norte 0 -- -- 49
2018-05-03 18:00:00 10.5 25 Norte 40 Norte 0 -- -- 47
2018-05-03 17:00:00 11.5 26 Norte 41 Norte 0 -- -- 42
2018-05-03 16:00:00 12.4 24 Norte 41 Norte 0 -- -- 45
2018-05-03 15:00:00 12.3 27 Norte 40 Norte 0 -- -- 40
2018-05-03 14:00:00 11.5 25 Norte 42 Norte 0 -- -- 39
2018-05-03 13:00:00 10.7 28 Norte 42 Norte 0 -- -- 41
2018-05-03 12:00:00 9.8 15 Noroeste 32 Noroeste 0 -- -- 56
2018-05-03 11:00:00 8.8 20 Norte 30 Noroeste 0 -- -- 60
2018-05-03 10:00:00 8.9 15 Norte 30 Norte 0 -- -- 58
2018-05-03 09:00:00 7.8 10 Norte 25 Norte 0 -- -- 65
2018-05-03 08:00:00 7.5 16 Norte 29 Norte 0 -- -- 72
2018-05-03 07:00:00 7.9 13 Norte 27 Norte 0 -- -- 73
2018-05-03 06:00:00 8 11 Noroeste 19 Norte 0 -- -- 78
2018-05-03 05:00:00 8.6 12 Norte 20 Norte 0 -- -- 82
2018-05-03 04:00:00 8.9 7 Norte 16 Norte 0 -- -- 83
2018-05-03 03:00:00 8.8 6 Noroeste 12 Noroeste 0 -- -- 87
2018-05-03 02:00:00 8.8 4 Oeste 7 Noroeste 0 -- -- 88
2018-05-03 01:00:00 9 4 Noroeste 9 Noroeste 0 -- -- 88
2018-05-03 00:00:00 9.2 3 Oeste 6 Oeste 0 -- -- 84
2018-05-02 23:00:00 9.6 5 Oeste 8 Oeste 0.4 -- -- 84
2018-05-02 22:00:00 10.8 5 Noroeste 12 Noroeste 0 -- -- 73
2018-05-02 21:00:00 11.2 10 Noroeste 23 Oeste 0 -- -- 69
2018-05-02 20:00:00 11.7 17 Oeste 27 Noroeste 0 -- -- 64
2018-05-02 19:00:00 12.6 17 Oeste 29 Oeste 0 -- -- 59
2018-05-02 18:00:00 13 18 Oeste 30 Oeste 0 -- -- 54
2018-05-02 17:00:00 13 16 Oeste 31 Oeste 0 -- -- 49
2018-05-02 16:00:00 13.7 19 Oeste 35 Noroeste 0 -- -- 42
2018-05-02 15:00:00 12.8 17 Noroeste 38 Oeste 0 -- -- 41
2018-05-02 14:00:00 12 18 Oeste 33 Oeste 0 -- -- 38
2018-05-02 13:00:00 10.6 15 Noroeste 32 Oeste 0 -- -- 41
2018-05-02 12:00:00 9.7 19 Oeste 31 Oeste 0 -- -- 50
2018-05-02 11:00:00 8.3 12 Oeste 22 Oeste 0 -- -- 58
2018-05-02 10:00:00 6.7 14 Oeste 22 Oeste 0 -- -- 68
2018-05-02 09:00:00 4.7 8 Oeste 13 Oeste 0 -- -- 79
2018-05-02 08:00:00 3.8 2 Sudoeste 10 Oeste 0 -- -- 80
2018-05-02 07:00:00 3.3 2 Oeste 4 Sudoeste 0 -- -- 79
2018-05-02 06:00:00 2.5 0 Calma 5 Oeste 0 -- -- 85
2018-05-02 05:00:00 2.2 2 Norte 5 Este 0 -- -- 86
2018-05-02 04:00:00 2.6 2 Nordeste 9 Este 0 -- -- 78
2018-05-02 03:00:00 3.6 0 Calma 4 Sudoeste 0 -- -- 75
2018-05-02 02:00:00 4.1 2 Sudeste 5 Sudoeste 0 -- -- 70
2018-05-02 01:00:00 4.5 4 Sudoeste 6 Sudoeste 0 -- -- 70
2018-05-02 00:00:00 5.2 3 Nordeste 6 Nordeste 0 -- -- 65
2018-05-01 23:00:00 5.9 4 Norte 7 Noroeste 0 -- -- 63
2018-05-01 22:00:00 6.9 4 Noroeste 9 Noroeste 0 -- -- 57
2018-05-01 21:00:00 9 6 Noroeste 23 Oeste 0 -- -- 48
2018-05-01 20:00:00 10.7 11 Noroeste 28 Oeste 0 -- -- 42
2018-05-01 19:00:00 11.3 15 Noroeste 29 Noroeste 0 -- -- 38
2018-05-01 18:00:00 11.9 19 Noroeste 35 Oeste 0 -- -- 39
2018-05-01 17:00:00 11.5 20 Oeste 31 Oeste 0 -- -- 43
2018-05-01 16:00:00 11.3 17 Oeste 29 Oeste 0 -- -- 45
2018-05-01 15:00:00 10.7 15 Noroeste 29 Noroeste 0 -- -- 48
2018-05-01 14:00:00 9.2 12 Noroeste 21 Noroeste 0 -- -- 44
2018-05-01 13:00:00 8.2 5 Noroeste 21 Oeste 0 -- -- 57
2018-05-01 12:00:00 7.3 5 Noroeste 15 Noroeste 0 -- -- 59
2018-05-01 11:00:00 6.6 12 Nordeste 21 Norte 0 -- -- 59
2018-05-01 10:00:00 5.2 9 Norte 17 Nordeste 0 -- -- 68
2018-05-01 09:00:00 2.3 5 Sudoeste 8 Noroeste 0 -- -- 85
2018-05-01 08:00:00 0.5 4 Norte 7 Noroeste 0 -- -- 89
2018-05-01 07:00:00 -0.6 0 Calma 9 Norte 0 -- -- 89
2018-05-01 06:00:00 -0.6 5 Noroeste 9 Noroeste 0 -- -- 91
2018-05-01 05:00:00 -0.5 5 Noroeste 11 Oeste 0 -- -- 91
2018-05-01 04:00:00 0.3 7 Oeste 10 Oeste 0 -- -- 90
2018-05-01 03:00:00 0.6 4 Oeste 6 Oeste 0 -- -- 91
2018-05-01 02:00:00 1.3 2 Norte 8 Norte 0 -- -- 89
2018-05-01 01:00:00 1.8 4 Noroeste 10 Noroeste 0 -- -- 89
2018-05-01 00:00:00 2.5 4 Noroeste 11 Norte 0 -- -- 87
2018-04-30 23:00:00 3 9 Norte 16 Noroeste 0 -- -- 85
2018-04-30 22:00:00 4 9 Oeste 19 Noroeste 0 -- -- 87
2018-04-30 21:00:00 4.4 7 Oeste 17 Oeste 0 -- -- 84
2018-04-30 20:00:00 5.2 5 Noroeste 14 Noroeste 0 -- -- 81
2018-04-30 19:00:00 5 6 Oeste 21 Oeste 0.2 -- -- 87
2018-04-30 18:00:00 4 13 Oeste 23 Noroeste 1 -- -- 85
2018-04-30 17:00:00 4.1 20 Noroeste 32 Noroeste 0.2 -- -- 81
2018-04-30 16:00:00 6.6 13 Sudoeste 40 Sudoeste 0.6 -- -- 72
2018-04-30 15:00:00 6.3 5 Noroeste 25 Noroeste 0.4 -- -- 67
2018-04-30 14:00:00 6.8 10 Sudoeste 19 Sudoeste 0 -- -- 61
2018-04-30 13:00:00 5.2 13 Oeste 27 Sudoeste 0 -- -- 69
2018-04-30 12:00:00 5.3 16 Sudoeste 30 Oeste 0 -- -- 66
2018-04-30 11:00:00 3.9 15 Sudoeste 25 Sudoeste 0 -- -- 80
2018-04-30 10:00:00 3.1 12 Oeste 20 Oeste 0 -- -- 85
2018-04-30 09:00:00 2.2 11 Sudoeste 19 Oeste 0 -- -- 90
2018-04-30 08:00:00 1.9 10 Oeste 20 Sudoeste 0 -- -- 92
2018-04-30 07:00:00 1.3 4 Sudoeste 9 Sudoeste 0 -- -- 92
2018-04-30 06:00:00 0.7 2 Sudoeste 13 Sudoeste 0 -- -- 91
2018-04-30 05:00:00 1.2 6 Sudoeste 18 Sudoeste 0 -- -- 90
2018-04-30 04:00:00 2.2 8 Sudoeste 20 Sudoeste 0 -- -- 89
2018-04-30 03:00:00 2 8 Sudoeste 18 Sudoeste 0 -- -- 90
2018-04-30 02:00:00 2.4 9 Sudoeste 26 Sudoeste 0 -- -- 89
2018-04-30 01:00:00 3.1 12 Sudoeste 26 Sudoeste 0 -- -- 86
2018-04-30 00:00:00 3.6 15 Sudoeste 26 Sudoeste 0 -- -- 84
2018-04-29 23:00:00 3.9 9 Sudoeste 36 Oeste 0 -- -- 85
2018-04-29 22:00:00 4.4 14 Sudoeste 32 Oeste 0 -- -- 84
2018-04-29 21:00:00 5.4 15 Oeste 45 Sudoeste 0 -- -- 78
2018-04-29 20:00:00 5.3 8 Oeste 48 Oeste 0.8 -- -- 83
2018-04-29 19:00:00 6.9 27 Sudoeste 50 Sudoeste 0.2 -- -- 72
2018-04-29 18:00:00 7.7 19 Oeste 48 Oeste 0 -- -- 67
2018-04-29 17:00:00 8.4 18 Sudoeste 71 Oeste 0.4 -- -- 75
2018-04-29 16:00:00 8.3 18 Oeste 50 Oeste 0.2 -- -- 72
2018-04-29 15:00:00 7.8 23 Sudoeste 38 Sudoeste 0 -- -- 74
2018-04-29 14:00:00 7.3 24 Oeste 37 Oeste 0 -- -- 76
2018-04-29 13:00:00 4.7 23 Sudoeste 38 Sudoeste 0 -- -- 88
2018-04-29 12:00:00 6 14 Oeste 26 Oeste 0 -- -- 83
2018-04-29 11:00:00 5.3 19 Oeste 28 Oeste 0.2 -- -- 84
2018-04-29 10:00:00 5.5 10 Sudoeste 21 Sudoeste 0 -- -- 84
2018-04-29 09:00:00 5.3 6 Sudoeste 10 Sudoeste 0 -- -- 86
2018-04-29 08:00:00 4.7 6 Sur 10 Sur 0 -- -- 88
2018-04-29 07:00:00 4.8 5 Sur 9 Sur 0 -- -- 90
2018-04-29 06:00:00 5.1 4 Sudeste 18 Sudoeste 0.8 -- -- 86
2018-04-29 05:00:00 5.8 11 Sudoeste 17 Sudoeste 0.2 -- -- 81
2018-04-29 04:00:00 6.3 4 Sudoeste 7 Oeste 0 -- -- 74
2018-04-29 03:00:00 6.3 4 Oeste 9 Oeste 0 -- -- 67
2018-04-29 02:00:00 6.5 8 Oeste 14 Oeste 0 -- -- 64
2018-04-29 01:00:00 7.8 6 Oeste 9 Sudoeste 0 -- -- 54
2018-04-29 00:00:00 8.1 4 Sudeste 13 Sudoeste 0 -- -- 55
2018-04-28 23:00:00 8.3 6 Sudoeste 9 Oeste 0 -- -- 51
2018-04-28 22:00:00 9.8 4 Sudoeste 21 Sudoeste 0 -- -- 53
2018-04-28 21:00:00 10.9 14 Oeste 29 Oeste 0 -- -- 50
2018-04-28 20:00:00 12 17 Oeste 30 Oeste 0 -- -- 49
2018-04-28 19:00:00 12.7 18 Oeste 31 Oeste 0 -- -- 49
2018-04-28 18:00:00 13.7 15 Oeste 32 Sur 0 -- -- 49
2018-04-28 17:00:00 14.8 25 Sur 41 Sur 0 -- -- 37
2018-04-28 16:00:00 14.4 13 Sudoeste 25 Sudoeste 0 -- -- 47
2018-04-28 15:00:00 13.8 12 Sudoeste 26 Sudoeste 0 -- -- 53
2018-04-28 14:00:00 14.8 13 Oeste 33 Sudoeste 0 -- -- 53
2018-04-28 13:00:00 13.8 12 Sudoeste 21 Sudoeste 0 -- -- 52
2018-04-28 12:00:00 13 6 Noroeste 14 Noroeste 0 -- -- 66
2018-04-28 11:00:00 11.6 6 Sudoeste 15 Sudoeste 0 -- -- 74
2018-04-28 10:00:00 10 6 Sudoeste 12 Sudoeste 0 -- -- 81
2018-04-28 09:00:00 8.8 3 Este 13 Este 0 -- -- 84
2018-04-28 08:00:00 8.3 9 Este 18 Este 0 -- -- 88
2018-04-28 07:00:00 8.4 8 Este 13 Este 0 -- -- 87
2018-04-28 06:00:00 8.6 12 Este 15 Este 0 -- -- 83
2018-04-28 05:00:00 9 6 Nordeste 12 Nordeste 0 -- -- 80
2018-04-28 04:00:00 9.8 7 Noroeste 16 Oeste 0 -- -- 81
2018-04-28 03:00:00 11.4 11 Oeste 17 Oeste 0 -- -- 76
2018-04-28 02:00:00 11.7 3 Oeste 6 Sudoeste 0 -- -- 72
2018-04-28 01:00:00 12.1 2 Sur 6 Oeste 0 -- -- 71
2018-04-28 00:00:00 12.4 3 Oeste 7 Noroeste 0 -- -- 63
2018-04-27 23:00:00 12.9 5 Noroeste 12 Oeste 0 -- -- 62
2018-04-27 22:00:00 14.1 5 Noroeste 14 Oeste 0 -- -- 57
2018-04-27 21:00:00 15.3 7 Noroeste 23 Oeste 0 -- -- 53
2018-04-27 20:00:00 17.3 15 Noroeste 33 Oeste 0 -- -- 46
2018-04-27 19:00:00 18.4 16 Oeste 29 Noroeste 0 -- -- 42
2018-04-27 18:00:00 18.9 16 Oeste 27 Oeste 0 -- -- 38
2018-04-27 17:00:00 18.7 15 Oeste 25 Oeste 0 -- -- 42
2018-04-27 16:00:00 18.3 14 Oeste 30 Noroeste 0 -- -- 44
2018-04-27 15:00:00 17.9 13 Oeste 24 Noroeste 0 -- -- 46
2018-04-27 14:00:00 17.3 13 Oeste 26 Oeste 0 -- -- 50
2018-04-27 13:00:00 16.3 15 Oeste 26 Oeste 0 -- -- 55
2018-04-27 12:00:00 15.3 7 Oeste 22 Sudoeste 0 -- -- 61
2018-04-27 11:00:00 14.3 10 Oeste 17 Oeste 0 -- -- 62
2018-04-27 10:00:00 12.8 8 Sudoeste 22 Oeste 0 -- -- 79
2018-04-27 09:00:00 12 10 Oeste 17 Oeste 0 -- -- 86
2018-04-27 08:00:00 12 12 Oeste 21 Oeste 0 -- -- 86
2018-04-27 07:00:00 11.9 6 Oeste 10 Oeste 0 -- -- 87
2018-04-27 06:00:00 11.4 7 Sudoeste 10 Sudoeste 0 -- -- 86
2018-04-27 05:00:00 10.9 4 Sudeste 7 Noroeste 0 -- -- 84
2018-04-27 04:00:00 11.4 3 Norte 9 Norte 0 -- -- 83
2018-04-27 03:00:00 11.7 4 Norte 7 Sudeste 0 -- -- 80
2018-04-27 02:00:00 12.2 0 Calma 8 Sudeste 0 -- -- 78
2018-04-27 01:00:00 12.5 7 Sudeste 11 Sudeste 0 -- -- 75
2018-04-27 00:00:00 13.4 4 Norte 5 Norte 0 -- -- 71
2018-04-26 23:00:00 14.6 4 Norte 8 Noroeste 0 -- -- 66
2018-04-26 22:00:00 15.5 6 Noroeste 10 Oeste 0 -- -- 63
2018-04-26 21:00:00 17.8 6 Oeste 16 Noroeste 0 -- -- 55
2018-04-26 20:00:00 19.7 12 Oeste 26 Oeste 0 -- -- 51
2018-04-26 19:00:00 20.9 17 Oeste 26 Oeste 0 -- -- 47
2018-04-26 18:00:00 21.8 15 Oeste 24 Noroeste 0 -- -- 47
2018-04-26 17:00:00 22 14 Noroeste 30 Oeste 0 -- -- 46
2018-04-26 16:00:00 21.6 12 Oeste 23 Sudoeste 0 -- -- 46
2018-04-26 15:00:00 20.7 8 Sudoeste 18 Sudoeste 0 -- -- 50
2018-04-26 14:00:00 19.5 7 Sudoeste 14 Sur 0 -- -- 54
2018-04-26 13:00:00 18.3 5 Sudoeste 13 Sudoeste 0 -- -- 52
2018-04-26 12:00:00 16.7 5 Sur 15 Sudeste 0 -- -- 59
2018-04-26 11:00:00 14 13 Sudeste 21 Sudeste 0 -- -- 63
2018-04-26 10:00:00 12.1 5 Este 12 Este 0 -- -- 70
2018-04-26 09:00:00 9.7 8 Este 17 Este 0 -- -- 78
2018-04-26 08:00:00 7.4 6 Este 13 Este 0 -- -- 87
2018-04-26 07:00:00 7.2 8 Sudeste 15 Sudeste 0 -- -- 87
2018-04-26 06:00:00 7.7 9 Este 12 Este 0 -- -- 86
2018-04-26 05:00:00 8.6 5 Este 10 Este 0 -- -- 83
2018-04-26 04:00:00 9.3 5 Este 13 Sudeste 0 -- -- 81
2018-04-26 03:00:00 10.2 7 Sudeste 14 Sudeste 0 -- -- 80
2018-04-26 02:00:00 11.6 8 Este 15 Sudeste 0 -- -- 76
2018-04-26 01:00:00 12.8 5 Sudeste 11 Nordeste 0 -- -- 73
2018-04-26 00:00:00 13.4 5 Este 11 Nordeste 0 -- -- 69
2018-04-25 23:00:00 14.9 5 Este 10 Nordeste 0 -- -- 64
2018-04-25 22:00:00 16 10 Este 27 Nordeste 0 -- -- 62
2018-04-25 21:00:00 20.4 8 Nordeste 16 Este 0 -- -- 49
2018-04-25 20:00:00 22.6 9 Sudeste 19 Sudeste 0 -- -- 39
2018-04-25 19:00:00 23.3 15 Norte 29 Noroeste 0 -- -- 31
2018-04-25 18:00:00 24.1 22 Noroeste 32 Noroeste 0 -- -- 34
2018-04-25 17:00:00 24.7 21 Noroeste 30 Noroeste 0 -- -- 32
2018-04-25 16:00:00 25 9 Oeste 19 Sudoeste 0 -- -- 35
2018-04-25 15:00:00 24.9 5 Sudoeste 18 Noroeste 0 -- -- 36
2018-04-25 14:00:00 23.6 4 Norte 16 Norte 0 -- -- 37
2018-04-25 13:00:00 22.7 2 Noroeste 14 Noroeste 0 -- -- 45
2018-04-25 12:00:00 21.8 4 Sudeste 20 Este 0 -- -- 44
2018-04-25 11:00:00 19.4 10 Sudeste 21 Este 0 -- -- 51
2018-04-25 10:00:00 17 14 Este 21 Este 0 -- -- 55
2018-04-25 09:00:00 12.7 6 Nordeste 12 Este 0 -- -- 78
2018-04-25 08:00:00 11.4 9 Este 16 Este 0 -- -- 76
2018-04-25 07:00:00 10.7 12 Este 14 Este 0 -- -- 79
2018-04-25 06:00:00 11.3 8 Este 12 Este 0 -- -- 76
2018-04-25 05:00:00 11.7 10 Este 14 Este 0 -- -- 77
2018-04-25 04:00:00 12.1 8 Este 12 Este 0 -- -- 76
2018-04-25 03:00:00 12.9 8 Sudeste 13 Este 0 -- -- 73
2018-04-25 02:00:00 14 4 Este 12 Sudeste 0 -- -- 68
2018-04-25 01:00:00 13.8 5 Nordeste 15 Este 0 -- -- 63
2018-04-25 00:00:00 14.9 2 Nordeste 12 Este 0 -- -- 59